Middleton, Tennessee
Current Conditions -  °F | °C
As of 2:35 AM on Monday 26 Jan 2015 (Local Time) from KCRX Reporting Station
Overcast Overcast  
Wind Chill: 32°   Ceiling: 1700
Heat Index: 41°   Visibility: 10mi
Dew Point: 36°   Wind: 17mph
Humidity: 81%   Direction: 320°NW
Pressure: 29.92"   Gusts: NA
Location:  35.06°N, 88.89°W
Report Text: KCRX 260835Z AUTO 32015KT 10SM OVC017 05/02 A2992 RMK AO2
Loading
Personal Weather Stations






























Interactive Weather Map New forecast layout! Learn more

10-Day Weather Forecast

Advertisements
Track Severe Weather on mobile